sensor_id;sensor_type;location;lat;lon;timestamp;P1;durP1;ratioP1;P2;durP2;ratioP2
9698;SDS011;10089;47.876;8.346;2023-03-03T00:01:29;44.97;;;24.00;;
9698;SDS011;10089;47.876;8.346;2023-03-03T00:03:56;43.33;;;23.30;;
9698;SDS011;10089;47.876;8.346;2023-03-03T00:06:22;45.03;;;25.43;;
9698;SDS011;10089;47.876;8.346;2023-03-03T00:08:49;47.27;;;23.87;;
9698;SDS011;10089;47.876;8.346;2023-03-03T00:11:14;50.87;;;27.13;;
9698;SDS011;10089;47.876;8.346;2023-03-03T00:13:45;46.53;;;26.93;;
9698;SDS011;10089;47.876;8.346;2023-03-03T00:16:31;53.93;;;27.20;;
9698;SDS011;10089;47.876;8.346;2023-03-03T00:19:01;57.40;;;29.57;;
9698;SDS011;10089;47.876;8.346;2023-03-03T00:21:31;56.07;;;29.70;;
9698;SDS011;10089;47.876;8.346;2023-03-03T00:26:41;52.30;;;26.17;;
9698;SDS011;10089;47.876;8.346;2023-03-03T00:31:54;52.63;;;28.37;;
9698;SDS011;10089;47.876;8.346;2023-03-03T00:34:43;43.67;;;24.67;;
9698;SDS011;10089;47.876;8.346;2023-03-03T00:40:10;48.47;;;25.10;;
9698;SDS011;10089;47.876;8.346;2023-03-03T00:42:53;48.40;;;24.53;;
9698;SDS011;10089;47.876;8.346;2023-03-03T00:45:42;49.40;;;24.30;;
9698;SDS011;10089;47.876;8.346;2023-03-03T00:48:20;54.07;;;26.00;;
9698;SDS011;10089;47.876;8.346;2023-03-03T00:50:51;52.53;;;25.80;;
9698;SDS011;10089;47.876;8.346;2023-03-03T00:53:20;51.23;;;25.60;;
9698;SDS011;10089;47.876;8.346;2023-03-03T00:55:47;45.37;;;23.87;;
9698;SDS011;10089;47.876;8.346;2023-03-03T00:58:15;45.73;;;25.47;;
9698;SDS011;10089;47.876;8.346;2023-03-03T01:00:42;49.13;;;25.33;;
9698;SDS011;10089;47.876;8.346;2023-03-03T01:03:12;45.40;;;24.37;;
9698;SDS011;10089;47.876;8.346;2023-03-03T01:05:46;44.43;;;23.17;;
9698;SDS011;10089;47.876;8.346;2023-03-03T01:08:12;43.40;;;23.77;;
9698;SDS011;10089;47.876;8.346;2023-03-03T01:10:49;50.13;;;23.00;;
9698;SDS011;10089;47.876;8.346;2023-03-03T01:13:16;52.73;;;23.97;;
9698;SDS011;10089;47.876;8.346;2023-03-03T01:15:43;48.70;;;24.67;;
9698;SDS011;10089;47.876;8.346;2023-03-03T01:18:09;46.23;;;25.03;;
9698;SDS011;10089;47.876;8.346;2023-03-03T01:20:37;48.37;;;24.67;;
9698;SDS011;10089;47.876;8.346;2023-03-03T01:23:03;49.10;;;25.77;;
9698;SDS011;10089;47.876;8.346;2023-03-03T01:25:29;52.80;;;26.03;;
9698;SDS011;10089;47.876;8.346;2023-03-03T01:27:55;49.67;;;25.60;;
9698;SDS011;10089;47.876;8.346;2023-03-03T01:30:21;48.03;;;25.13;;
9698;SDS011;10089;47.876;8.346;2023-03-03T01:32:47;50.90;;;25.63;;
9698;SDS011;10089;47.876;8.346;2023-03-03T01:35:12;52.50;;;25.47;;
9698;SDS011;10089;47.876;8.346;2023-03-03T01:37:38;47.37;;;25.67;;
9698;SDS011;10089;47.876;8.346;2023-03-03T01:40:06;48.10;;;23.67;;
9698;SDS011;10089;47.876;8.346;2023-03-03T01:42:37;43.40;;;24.60;;
9698;SDS011;10089;47.876;8.346;2023-03-03T01:47:39;46.20;;;22.53;;
9698;SDS011;10089;47.876;8.346;2023-03-03T01:50:11;49.43;;;23.73;;
9698;SDS011;10089;47.876;8.346;2023-03-03T01:52:43;42.17;;;23.33;;
9698;SDS011;10089;47.876;8.346;2023-03-03T01:55:17;43.70;;;22.50;;
9698;SDS011;10089;47.876;8.346;2023-03-03T01:57:55;46.77;;;23.47;;
9698;SDS011;10089;47.876;8.346;2023-03-03T02:00:26;40.93;;;22.50;;
9698;SDS011;10089;47.876;8.346;2023-03-03T02:02:53;43.63;;;22.73;;
9698;SDS011;10089;47.876;8.346;2023-03-03T02:05:19;46.63;;;23.70;;
9698;SDS011;10089;47.876;8.346;2023-03-03T02:07:45;49.43;;;24.67;;
9698;SDS011;10089;47.876;8.346;2023-03-03T02:10:12;47.87;;;24.20;;
9698;SDS011;10089;47.876;8.346;2023-03-03T02:12:42;50.43;;;24.90;;
9698;SDS011;10089;47.876;8.346;2023-03-03T02:15:19;43.13;;;23.43;;
9698;SDS011;10089;47.876;8.346;2023-03-03T02:18:08;44.00;;;23.20;;
9698;SDS011;10089;47.876;8.346;2023-03-03T02:25:47;49.60;;;23.90;;
9698;SDS011;10089;47.876;8.346;2023-03-03T02:28:17;44.07;;;23.10;;
9698;SDS011;10089;47.876;8.346;2023-03-03T02:30:42;45.23;;;21.73;;
9698;SDS011;10089;47.876;8.346;2023-03-03T02:33:08;47.13;;;24.33;;
9698;SDS011;10089;47.876;8.346;2023-03-03T02:35:35;54.57;;;24.93;;
9698;SDS011;10089;47.876;8.346;2023-03-03T02:38:14;48.97;;;23.97;;
9698;SDS011;10089;47.876;8.346;2023-03-03T02:40:56;48.30;;;23.57;;
9698;SDS011;10089;47.876;8.346;2023-03-03T02:43:47;48.07;;;24.77;;
9698;SDS011;10089;47.876;8.346;2023-03-03T02:46:22;46.53;;;24.57;;
9698;SDS011;10089;47.876;8.346;2023-03-03T02:48:48;44.97;;;25.27;;
9698;SDS011;10089;47.876;8.346;2023-03-03T02:51:14;50.53;;;26.37;;
9698;SDS011;10089;47.876;8.346;2023-03-03T02:53:39;49.73;;;25.77;;
9698;SDS011;10089;47.876;8.346;2023-03-03T02:56:05;51.87;;;26.73;;
9698;SDS011;10089;47.876;8.346;2023-03-03T02:58:33;50.80;;;24.80;;
9698;SDS011;10089;47.876;8.346;2023-03-03T03:01:00;56.00;;;25.63;;
9698;SDS011;10089;47.876;8.346;2023-03-03T03:03:26;47.27;;;23.40;;
9698;SDS011;10089;47.876;8.346;2023-03-03T03:05:51;44.13;;;24.03;;
9698;SDS011;10089;47.876;8.346;2023-03-03T03:08:17;48.27;;;25.43;;
9698;SDS011;10089;47.876;8.346;2023-03-03T03:10:43;46.30;;;23.83;;
9698;SDS011;10089;47.876;8.346;2023-03-03T03:13:09;46.40;;;23.63;;
9698;SDS011;10089;47.876;8.346;2023-03-03T03:15:36;44.03;;;23.67;;
9698;SDS011;10089;47.876;8.346;2023-03-03T03:18:02;45.30;;;24.27;;
9698;SDS011;10089;47.876;8.346;2023-03-03T03:20:28;47.10;;;25.17;;
9698;SDS011;10089;47.876;8.346;2023-03-03T03:22:54;44.43;;;23.93;;
9698;SDS011;10089;47.876;8.346;2023-03-03T03:25:19;46.37;;;23.63;;
9698;SDS011;10089;47.876;8.346;2023-03-03T03:27:45;52.07;;;25.93;;
9698;SDS011;10089;47.876;8.346;2023-03-03T03:30:11;44.80;;;24.50;;
9698;SDS011;10089;47.876;8.346;2023-03-03T03:32:37;47.80;;;25.30;;
9698;SDS011;10089;47.876;8.346;2023-03-03T03:35:03;47.57;;;24.30;;
9698;SDS011;10089;47.876;8.346;2023-03-03T03:37:29;43.87;;;24.40;;
9698;SDS011;10089;47.876;8.346;2023-03-03T03:39:55;51.57;;;25.17;;
9698;SDS011;10089;47.876;8.346;2023-03-03T03:42:21;51.43;;;24.67;;
9698;SDS011;10089;47.876;8.346;2023-03-03T03:44:46;52.23;;;25.87;;
9698;SDS011;10089;47.876;8.346;2023-03-03T03:47:12;49.73;;;24.57;;
9698;SDS011;10089;47.876;8.346;2023-03-03T03:49:38;47.50;;;24.67;;
9698;SDS011;10089;47.876;8.346;2023-03-03T03:52:04;54.43;;;26.93;;
9698;SDS011;10089;47.876;8.346;2023-03-03T03:54:29;48.00;;;25.37;;
9698;SDS011;10089;47.876;8.346;2023-03-03T03:56:55;49.93;;;25.37;;
9698;SDS011;10089;47.876;8.346;2023-03-03T03:59:21;49.07;;;24.70;;
9698;SDS011;10089;47.876;8.346;2023-03-03T04:01:47;58.87;;;26.30;;
9698;SDS011;10089;47.876;8.346;2023-03-03T04:04:14;49.67;;;25.03;;
9698;SDS011;10089;47.876;8.346;2023-03-03T04:06:40;53.30;;;26.30;;
9698;SDS011;10089;47.876;8.346;2023-03-03T04:09:06;53.37;;;26.53;;
9698;SDS011;10089;47.876;8.346;2023-03-03T04:11:31;53.07;;;26.80;;
9698;SDS011;10089;47.876;8.346;2023-03-03T04:13:57;53.10;;;28.03;;
9698;SDS011;10089;47.876;8.346;2023-03-03T04:16:23;52.67;;;25.57;;
9698;SDS011;10089;47.876;8.346;2023-03-03T04:18:49;48.87;;;26.77;;
9698;SDS011;10089;47.876;8.346;2023-03-03T04:21:15;51.70;;;26.13;;
9698;SDS011;10089;47.876;8.346;2023-03-03T04:23:41;50.53;;;26.87;;
9698;SDS011;10089;47.876;8.346;2023-03-03T04:26:07;55.57;;;26.17;;
9698;SDS011;10089;47.876;8.346;2023-03-03T04:28:34;52.60;;;25.37;;
9698;SDS011;10089;47.876;8.346;2023-03-03T04:31:00;50.23;;;25.50;;
9698;SDS011;10089;47.876;8.346;2023-03-03T04:33:26;46.17;;;26.53;;
9698;SDS011;10089;47.876;8.346;2023-03-03T04:35:51;59.50;;;29.17;;
9698;SDS011;10089;47.876;8.346;2023-03-03T04:38:17;54.67;;;28.80;;
9698;SDS011;10089;47.876;8.346;2023-03-03T04:40:43;54.50;;;28.40;;
9698;SDS011;10089;47.876;8.346;2023-03-03T04:43:09;60.63;;;26.67;;
9698;SDS011;10089;47.876;8.346;2023-03-03T04:45:35;50.70;;;26.33;;
9698;SDS011;10089;47.876;8.346;2023-03-03T04:48:01;54.63;;;27.33;;
9698;SDS011;10089;47.876;8.346;2023-03-03T04:50:27;48.63;;;26.40;;
9698;SDS011;10089;47.876;8.346;2023-03-03T04:52:53;51.57;;;26.53;;
9698;SDS011;10089;47.876;8.346;2023-03-03T04:55:18;49.53;;;26.03;;
9698;SDS011;10089;47.876;8.346;2023-03-03T04:57:44;53.23;;;27.20;;
9698;SDS011;10089;47.876;8.346;2023-03-03T05:00:10;51.33;;;25.93;;
9698;SDS011;10089;47.876;8.346;2023-03-03T05:02:38;45.43;;;24.63;;
9698;SDS011;10089;47.876;8.346;2023-03-03T05:05:05;48.47;;;25.70;;
9698;SDS011;10089;47.876;8.346;2023-03-03T05:07:32;52.83;;;25.43;;
9698;SDS011;10089;47.876;8.346;2023-03-03T05:09:57;49.10;;;26.43;;
9698;SDS011;10089;47.876;8.346;2023-03-03T05:12:23;52.70;;;26.77;;
9698;SDS011;10089;47.876;8.346;2023-03-03T05:14:49;48.40;;;26.60;;
9698;SDS011;10089;47.876;8.346;2023-03-03T05:17:16;53.33;;;25.87;;
9698;SDS011;10089;47.876;8.346;2023-03-03T05:19:41;49.13;;;25.60;;
9698;SDS011;10089;47.876;8.346;2023-03-03T05:22:07;59.00;;;27.47;;
9698;SDS011;10089;47.876;8.346;2023-03-03T05:24:34;51.77;;;26.23;;
9698;SDS011;10089;47.876;8.346;2023-03-03T05:27:00;56.87;;;28.17;;
9698;SDS011;10089;47.876;8.346;2023-03-03T05:29:27;54.20;;;28.33;;
9698;SDS011;10089;47.876;8.346;2023-03-03T05:31:56;53.57;;;27.37;;
9698;SDS011;10089;47.876;8.346;2023-03-03T05:34:22;56.33;;;28.53;;
9698;SDS011;10089;47.876;8.346;2023-03-03T05:36:48;57.00;;;28.00;;
9698;SDS011;10089;47.876;8.346;2023-03-03T05:39:14;57.57;;;27.50;;
9698;SDS011;10089;47.876;8.346;2023-03-03T05:41:39;49.90;;;27.13;;
9698;SDS011;10089;47.876;8.346;2023-03-03T05:44:05;54.07;;;27.83;;
9698;SDS011;10089;47.876;8.346;2023-03-03T05:46:32;53.47;;;28.83;;
9698;SDS011;10089;47.876;8.346;2023-03-03T05:48:57;55.70;;;28.50;;
9698;SDS011;10089;47.876;8.346;2023-03-03T05:51:23;63.60;;;30.53;;
9698;SDS011;10089;47.876;8.346;2023-03-03T05:53:49;68.87;;;31.67;;
9698;SDS011;10089;47.876;8.346;2023-03-03T05:56:15;59.70;;;30.83;;
9698;SDS011;10089;47.876;8.346;2023-03-03T05:58:40;55.13;;;28.33;;
9698;SDS011;10089;47.876;8.346;2023-03-03T06:01:06;60.47;;;29.27;;
9698;SDS011;10089;47.876;8.346;2023-03-03T06:03:32;58.67;;;29.30;;
9698;SDS011;10089;47.876;8.346;2023-03-03T06:05:58;52.63;;;26.67;;
9698;SDS011;10089;47.876;8.346;2023-03-03T06:08:23;55.17;;;26.97;;
9698;SDS011;10089;47.876;8.346;2023-03-03T06:10:49;59.37;;;29.73;;
9698;SDS011;10089;47.876;8.346;2023-03-03T06:13:15;59.77;;;28.03;;
9698;SDS011;10089;47.876;8.346;2023-03-03T06:15:41;54.53;;;28.77;;
9698;SDS011;10089;47.876;8.346;2023-03-03T06:18:07;52.13;;;28.07;;
9698;SDS011;10089;47.876;8.346;2023-03-03T06:20:32;60.97;;;29.33;;
9698;SDS011;10089;47.876;8.346;2023-03-03T06:22:59;61.47;;;30.03;;
9698;SDS011;10089;47.876;8.346;2023-03-03T06:25:25;61.67;;;30.00;;
9698;SDS011;10089;47.876;8.346;2023-03-03T06:27:52;56.90;;;29.47;;
9698;SDS011;10089;47.876;8.346;2023-03-03T06:30:18;59.30;;;29.47;;
9698;SDS011;10089;47.876;8.346;2023-03-03T06:32:44;60.37;;;30.03;;
9698;SDS011;10089;47.876;8.346;2023-03-03T06:35:10;63.13;;;30.77;;
9698;SDS011;10089;47.876;8.346;2023-03-03T06:37:36;54.27;;;29.73;;
9698;SDS011;10089;47.876;8.346;2023-03-03T06:40:03;57.20;;;30.17;;
9698;SDS011;10089;47.876;8.346;2023-03-03T06:42:29;63.30;;;31.77;;
9698;SDS011;10089;47.876;8.346;2023-03-03T06:44:55;62.73;;;32.53;;
9698;SDS011;10089;47.876;8.346;2023-03-03T06:47:21;68.37;;;31.77;;
9698;SDS011;10089;47.876;8.346;2023-03-03T06:49:47;69.27;;;31.77;;
9698;SDS011;10089;47.876;8.346;2023-03-03T06:52:14;61.87;;;31.67;;
9698;SDS011;10089;47.876;8.346;2023-03-03T06:54:44;64.87;;;31.17;;
9698;SDS011;10089;47.876;8.346;2023-03-03T06:57:22;72.53;;;34.77;;
9698;SDS011;10089;47.876;8.346;2023-03-03T06:59:52;62.40;;;31.07;;
9698;SDS011;10089;47.876;8.346;2023-03-03T07:02:21;65.47;;;31.30;;
9698;SDS011;10089;47.876;8.346;2023-03-03T07:04:47;73.90;;;33.43;;
9698;SDS011;10089;47.876;8.346;2023-03-03T07:07:18;62.37;;;32.13;;
9698;SDS011;10089;47.876;8.346;2023-03-03T07:09:49;60.73;;;31.83;;
9698;SDS011;10089;47.876;8.346;2023-03-03T07:12:27;65.40;;;31.50;;
9698;SDS011;10089;47.876;8.346;2023-03-03T07:15:15;71.17;;;33.97;;
9698;SDS011;10089;47.876;8.346;2023-03-03T07:17:46;61.23;;;30.73;;
9698;SDS011;10089;47.876;8.346;2023-03-03T07:20:18;68.97;;;32.20;;
9698;SDS011;10089;47.876;8.346;2023-03-03T07:22:46;62.83;;;31.57;;
9698;SDS011;10089;47.876;8.346;2023-03-03T07:25:19;65.50;;;31.70;;
9698;SDS011;10089;47.876;8.346;2023-03-03T07:27:45;59.13;;;30.17;;
9698;SDS011;10089;47.876;8.346;2023-03-03T07:32:44;60.07;;;30.20;;
9698;SDS011;10089;47.876;8.346;2023-03-03T07:37:45;62.33;;;29.03;;
9698;SDS011;10089;47.876;8.346;2023-03-03T07:42:51;53.30;;;29.47;;
9698;SDS011;10089;47.876;8.346;2023-03-03T07:45:22;54.40;;;29.80;;
9698;SDS011;10089;47.876;8.346;2023-03-03T07:48:08;51.57;;;27.87;;
9698;SDS011;10089;47.876;8.346;2023-03-03T07:50:39;60.63;;;28.90;;
9698;SDS011;10089;47.876;8.346;2023-03-03T07:53:11;53.13;;;27.97;;
9698;SDS011;10089;47.876;8.346;2023-03-03T07:55:46;52.00;;;28.10;;
9698;SDS011;10089;47.876;8.346;2023-03-03T08:05:48;54.33;;;28.23;;
9698;SDS011;10089;47.876;8.346;2023-03-03T08:08:21;50.10;;;27.73;;
9698;SDS011;10089;47.876;8.346;2023-03-03T08:10:51;54.60;;;29.07;;
9698;SDS011;10089;47.876;8.346;2023-03-03T08:13:36;51.50;;;28.20;;
9698;SDS011;10089;47.876;8.346;2023-03-03T08:18:48;52.20;;;28.57;;
9698;SDS011;10089;47.876;8.346;2023-03-03T08:21:34;44.90;;;25.93;;
9698;SDS011;10089;47.876;8.346;2023-03-03T08:24:00;53.17;;;27.10;;
9698;SDS011;10089;47.876;8.346;2023-03-03T08:26:26;51.83;;;27.57;;
9698;SDS011;10089;47.876;8.346;2023-03-03T08:28:52;50.80;;;27.93;;
9698;SDS011;10089;47.876;8.346;2023-03-03T08:31:18;55.27;;;27.87;;
9698;SDS011;10089;47.876;8.346;2023-03-03T08:33:44;52.90;;;27.97;;
9698;SDS011;10089;47.876;8.346;2023-03-03T08:36:11;52.07;;;26.23;;
9698;SDS011;10089;47.876;8.346;2023-03-03T08:38:37;48.87;;;26.97;;
9698;SDS011;10089;47.876;8.346;2023-03-03T08:41:03;46.83;;;26.13;;
9698;SDS011;10089;47.876;8.346;2023-03-03T08:43:30;47.97;;;27.23;;
9698;SDS011;10089;47.876;8.346;2023-03-03T08:45:56;48.57;;;26.50;;
9698;SDS011;10089;47.876;8.346;2023-03-03T08:48:25;53.67;;;26.17;;
9698;SDS011;10089;47.876;8.346;2023-03-03T08:50:52;51.47;;;27.90;;
9698;SDS011;10089;47.876;8.346;2023-03-03T08:55:53;52.73;;;27.57;;
9698;SDS011;10089;47.876;8.346;2023-03-03T08:58:19;50.97;;;27.73;;
9698;SDS011;10089;47.876;8.346;2023-03-03T09:01:03;51.30;;;27.63;;
9698;SDS011;10089;47.876;8.346;2023-03-03T09:03:35;53.10;;;27.03;;
9698;SDS011;10089;47.876;8.346;2023-03-03T09:06:01;50.17;;;27.23;;
9698;SDS011;10089;47.876;8.346;2023-03-03T09:08:27;53.43;;;27.50;;
9698;SDS011;10089;47.876;8.346;2023-03-03T09:10:52;49.90;;;26.37;;
9698;SDS011;10089;47.876;8.346;2023-03-03T09:13:18;54.23;;;28.50;;
9698;SDS011;10089;47.876;8.346;2023-03-03T09:15:45;48.17;;;26.17;;
9698;SDS011;10089;47.876;8.346;2023-03-03T09:20:52;57.40;;;30.73;;
9698;SDS011;10089;47.876;8.346;2023-03-03T09:23:35;48.10;;;26.63;;
9698;SDS011;10089;47.876;8.346;2023-03-03T09:26:24;49.93;;;26.63;;
9698;SDS011;10089;47.876;8.346;2023-03-03T09:28:59;52.43;;;26.93;;
9698;SDS011;10089;47.876;8.346;2023-03-03T09:31:40;50.13;;;25.97;;
9698;SDS011;10089;47.876;8.346;2023-03-03T09:36:56;47.07;;;27.67;;
9698;SDS011;10089;47.876;8.346;2023-03-03T09:39:25;47.63;;;26.73;;
9698;SDS011;10089;47.876;8.346;2023-03-03T09:44:54;47.27;;;26.13;;
9698;SDS011;10089;47.876;8.346;2023-03-03T10:01:31;45.73;;;25.70;;
9698;SDS011;10089;47.876;8.346;2023-03-03T10:09:53;54.23;;;28.63;;
9698;SDS011;10089;47.876;8.346;2023-03-03T10:12:47;43.05;;;24.75;;
9698;SDS011;10089;47.876;8.346;2023-03-03T10:15:36;42.30;;;23.47;;
9698;SDS011;10089;47.876;8.346;2023-03-03T10:18:58;47.13;;;26.25;;
9698;SDS011;10089;47.876;8.346;2023-03-03T10:23:42;45.13;;;25.95;;
9698;SDS011;10089;47.876;8.346;2023-03-03T10:29:18;44.15;;;24.48;;
9698;SDS011;10089;47.876;8.346;2023-03-03T10:40:37;44.55;;;24.08;;
9698;SDS011;10089;47.876;8.346;2023-03-03T10:43:11;41.75;;;25.50;;
9698;SDS011;10089;47.876;8.346;2023-03-03T10:46:24;50.03;;;30.23;;
9698;SDS011;10089;47.876;8.346;2023-03-03T10:59:29;41.30;;;24.50;;
9698;SDS011;10089;47.876;8.346;2023-03-03T11:07:27;43.20;;;24.42;;
9698;SDS011;10089;47.876;8.346;2023-03-03T11:12:49;42.80;;;24.48;;
9698;SDS011;10089;47.876;8.346;2023-03-03T11:15:46;47.25;;;25.13;;
9698;SDS011;10089;47.876;8.346;2023-03-03T11:21:22;44.55;;;25.05;;
9698;SDS011;10089;47.876;8.346;2023-03-03T11:41:15;43.38;;;22.67;;
9698;SDS011;10089;47.876;8.346;2023-03-03T11:55:12;38.67;;;21.65;;
9698;SDS011;10089;47.876;8.346;2023-03-03T11:57:49;37.00;;;22.40;;
9698;SDS011;10089;47.876;8.346;2023-03-03T12:04:04;39.17;;;22.67;;
9698;SDS011;10089;47.876;8.346;2023-03-03T12:17:26;39.70;;;22.88;;
9698;SDS011;10089;47.876;8.346;2023-03-03T12:36:49;39.88;;;22.67;;
9698;SDS011;10089;47.876;8.346;2023-03-03T12:47:48;36.25;;;22.48;;
9698;SDS011;10089;47.876;8.346;2023-03-03T12:52:55;35.35;;;21.73;;
9698;SDS011;10089;47.876;8.346;2023-03-03T12:58:18;36.40;;;21.65;;
9698;SDS011;10089;47.876;8.346;2023-03-03T13:07:03;39.22;;;20.63;;
9698;SDS011;10089;47.876;8.346;2023-03-03T13:15:01;35.67;;;21.17;;
9698;SDS011;10089;47.876;8.346;2023-03-03T13:28:57;38.20;;;20.85;;
9698;SDS011;10089;47.876;8.346;2023-03-03T13:31:36;34.17;;;19.85;;
9698;SDS011;10089;47.876;8.346;2023-03-03T13:34:07;35.05;;;20.77;;
9698;SDS011;10089;47.876;8.346;2023-03-03T13:37:00;33.42;;;21.15;;
9698;SDS011;10089;47.876;8.346;2023-03-03T13:39:55;37.72;;;21.10;;
9698;SDS011;10089;47.876;8.346;2023-03-03T13:42:23;32.25;;;20.77;;
9698;SDS011;10089;47.876;8.346;2023-03-03T13:44:57;36.63;;;19.42;;
9698;SDS011;10089;47.876;8.346;2023-03-03T13:47:34;33.75;;;20.65;;
9698;SDS011;10089;47.876;8.346;2023-03-03T13:50:30;39.85;;;21.90;;
9698;SDS011;10089;47.876;8.346;2023-03-03T13:58:43;39.85;;;22.85;;
9698;SDS011;10089;47.876;8.346;2023-03-03T14:04:29;38.90;;;22.25;;
9698;SDS011;10089;47.876;8.346;2023-03-03T14:06:58;35.70;;;21.40;;
9698;SDS011;10089;47.876;8.346;2023-03-03T14:09:39;43.25;;;22.10;;
9698;SDS011;10089;47.876;8.346;2023-03-03T14:12:27;41.00;;;22.83;;
9698;SDS011;10089;47.876;8.346;2023-03-03T14:20:49;38.28;;;20.60;;
9698;SDS011;10089;47.876;8.346;2023-03-03T14:28:23;45.45;;;24.27;;
9698;SDS011;10089;47.876;8.346;2023-03-03T14:30:54;41.70;;;24.00;;
9698;SDS011;10089;47.876;8.346;2023-03-03T14:33:25;38.85;;;22.17;;
9698;SDS011;10089;47.876;8.346;2023-03-03T14:38:25;45.47;;;23.67;;
9698;SDS011;10089;47.876;8.346;2023-03-03T14:41:11;44.95;;;24.23;;
9698;SDS011;10089;47.876;8.346;2023-03-03T14:47:03;47.30;;;23.55;;
9698;SDS011;10089;47.876;8.346;2023-03-03T14:49:33;40.53;;;24.60;;
9698;SDS011;10089;47.876;8.346;2023-03-03T14:52:02;40.25;;;22.88;;
9698;SDS011;10089;47.876;8.346;2023-03-03T14:54:40;41.75;;;21.90;;
9698;SDS011;10089;47.876;8.346;2023-03-03T15:05:29;36.45;;;20.60;;
9698;SDS011;10089;47.876;8.346;2023-03-03T15:10:43;32.97;;;19.98;;
9698;SDS011;10089;47.876;8.346;2023-03-03T15:13:28;32.95;;;19.63;;
9698;SDS011;10089;47.876;8.346;2023-03-03T15:18:25;38.33;;;19.45;;
9698;SDS011;10089;47.876;8.346;2023-03-03T15:21:02;30.58;;;18.40;;
9698;SDS011;10089;47.876;8.346;2023-03-03T15:26:12;36.67;;;19.45;;
9698;SDS011;10089;47.876;8.346;2023-03-03T15:29:03;37.72;;;19.05;;
9698;SDS011;10089;47.876;8.346;2023-03-03T15:36:58;34.47;;;18.50;;
9698;SDS011;10089;47.876;8.346;2023-03-03T15:50:10;35.13;;;20.35;;
9698;SDS011;10089;47.876;8.346;2023-03-03T16:04:36;34.88;;;21.25;;
9698;SDS011;10089;47.876;8.346;2023-03-03T16:10:23;38.60;;;19.88;;
9698;SDS011;10089;47.876;8.346;2023-03-03T16:24:42;35.33;;;21.17;;
9698;SDS011;10089;47.876;8.346;2023-03-03T16:32:55;33.10;;;20.88;;
9698;SDS011;10089;47.876;8.346;2023-03-03T16:35:34;39.53;;;22.95;;
9698;SDS011;10089;47.876;8.346;2023-03-03T16:38:33;34.05;;;19.92;;
9698;SDS011;10089;47.876;8.346;2023-03-03T16:41:07;44.80;;;21.05;;
9698;SDS011;10089;47.876;8.346;2023-03-03T16:46:49;53.50;;;27.20;;
9698;SDS011;10089;47.876;8.346;2023-03-03T16:51:44;41.72;;;23.67;;
9698;SDS011;10089;47.876;8.346;2023-03-03T17:03:18;55.00;;;29.48;;
9698;SDS011;10089;47.876;8.346;2023-03-03T17:15:01;82.90;;;36.83;;
9698;SDS011;10089;47.876;8.346;2023-03-03T17:17:45;42.03;;;24.13;;
9698;SDS011;10089;47.876;8.346;2023-03-03T17:20:46;43.10;;;24.67;;
9698;SDS011;10089;47.876;8.346;2023-03-03T17:28:56;58.88;;;31.05;;
9698;SDS011;10089;47.876;8.346;2023-03-03T17:37:07;43.78;;;24.88;;
9698;SDS011;10089;47.876;8.346;2023-03-03T17:42:42;45.25;;;24.98;;
9698;SDS011;10089;47.876;8.346;2023-03-03T17:45:20;42.70;;;23.65;;
9698;SDS011;10089;47.876;8.346;2023-03-03T17:50:55;46.05;;;23.80;;
9698;SDS011;10089;47.876;8.346;2023-03-03T17:56:40;39.53;;;22.85;;
9698;SDS011;10089;47.876;8.346;2023-03-03T18:12:37;51.63;;;25.83;;
9698;SDS011;10089;47.876;8.346;2023-03-03T18:15:32;45.80;;;26.35;;
9698;SDS011;10089;47.876;8.346;2023-03-03T18:23:42;41.75;;;26.08;;
9698;SDS011;10089;47.876;8.346;2023-03-03T18:37:08;42.47;;;25.20;;
9698;SDS011;10089;47.876;8.346;2023-03-03T18:42:33;48.42;;;26.10;;
9698;SDS011;10089;47.876;8.346;2023-03-03T18:45:45;48.05;;;26.88;;
9698;SDS011;10089;47.876;8.346;2023-03-03T18:55:50;53.50;;;28.88;;
9698;SDS011;10089;47.876;8.346;2023-03-03T19:09:16;45.38;;;28.33;;
9698;SDS011;10089;47.876;8.346;2023-03-03T19:12:09;46.50;;;27.27;;
9698;SDS011;10089;47.876;8.346;2023-03-03T19:14:45;48.30;;;26.42;;
9698;SDS011;10089;47.876;8.346;2023-03-03T19:20:08;49.50;;;29.30;;
9698;SDS011;10089;47.876;8.346;2023-03-03T19:22:42;54.85;;;30.30;;
9698;SDS011;10089;47.876;8.346;2023-03-03T19:33:32;58.20;;;30.75;;
9698;SDS011;10089;47.876;8.346;2023-03-03T19:44:38;59.00;;;29.95;;
9698;SDS011;10089;47.876;8.346;2023-03-03T19:55:32;46.65;;;27.98;;
9698;SDS011;10089;47.876;8.346;2023-03-03T20:15:17;46.80;;;23.40;;
9698;SDS011;10089;47.876;8.346;2023-03-03T20:26:02;39.37;;;23.60;;
9698;SDS011;10089;47.876;8.346;2023-03-03T20:32:26;42.45;;;22.60;;
9698;SDS011;10089;47.876;8.346;2023-03-03T20:56:19;39.38;;;25.20;;
9698;SDS011;10089;47.876;8.346;2023-03-03T21:04:33;43.63;;;26.02;;
9698;SDS011;10089;47.876;8.346;2023-03-03T21:07:01;43.78;;;26.80;;
9698;SDS011;10089;47.876;8.346;2023-03-03T21:12:24;41.27;;;24.07;;
9698;SDS011;10089;47.876;8.346;2023-03-03T21:14:58;46.15;;;25.20;;
9698;SDS011;10089;47.876;8.346;2023-03-03T21:17:26;44.13;;;24.67;;
9698;SDS011;10089;47.876;8.346;2023-03-03T21:19:53;44.55;;;24.75;;
9698;SDS011;10089;47.876;8.346;2023-03-03T21:22:19;40.95;;;24.55;;
9698;SDS011;10089;47.876;8.346;2023-03-03T21:24:52;41.30;;;23.43;;
9698;SDS011;10089;47.876;8.346;2023-03-03T21:27:23;38.80;;;23.10;;
9698;SDS011;10089;47.876;8.346;2023-03-03T21:30:00;60.05;;;29.58;;
9698;SDS011;10089;47.876;8.346;2023-03-03T21:32:38;57.83;;;30.53;;
9698;SDS011;10089;47.876;8.346;2023-03-03T21:35:10;53.15;;;27.83;;
9698;SDS011;10089;47.876;8.346;2023-03-03T21:40:41;47.73;;;27.37;;
9698;SDS011;10089;47.876;8.346;2023-03-03T21:43:01;50.77;;;28.57;;
9698;SDS011;10089;47.876;8.346;2023-03-03T21:45:26;54.03;;;28.83;;
9698;SDS011;10089;47.876;8.346;2023-03-03T21:47:54;47.15;;;27.52;;
9698;SDS011;10089;47.876;8.346;2023-03-03T21:50:21;43.78;;;25.38;;
9698;SDS011;10089;47.876;8.346;2023-03-03T21:52:47;46.47;;;26.10;;
9698;SDS011;10089;47.876;8.346;2023-03-03T21:55:13;49.90;;;26.65;;
9698;SDS011;10089;47.876;8.346;2023-03-03T21:57:39;49.50;;;27.23;;
9698;SDS011;10089;47.876;8.346;2023-03-03T22:00:06;43.80;;;24.27;;
9698;SDS011;10089;47.876;8.346;2023-03-03T22:02:33;44.90;;;25.60;;
9698;SDS011;10089;47.876;8.346;2023-03-03T22:04:59;48.60;;;25.93;;
9698;SDS011;10089;47.876;8.346;2023-03-03T22:07:27;40.40;;;23.93;;
9698;SDS011;10089;47.876;8.346;2023-03-03T22:09:53;41.27;;;24.70;;
9698;SDS011;10089;47.876;8.346;2023-03-03T22:12:19;43.00;;;25.48;;
9698;SDS011;10089;47.876;8.346;2023-03-03T22:14:45;41.73;;;27.17;;
9698;SDS011;10089;47.876;8.346;2023-03-03T22:17:11;45.10;;;25.90;;
9698;SDS011;10089;47.876;8.346;2023-03-03T22:19:36;47.72;;;26.13;;
9698;SDS011;10089;47.876;8.346;2023-03-03T22:22:02;49.07;;;25.77;;
9698;SDS011;10089;47.876;8.346;2023-03-03T22:24:29;47.60;;;26.83;;
9698;SDS011;10089;47.876;8.346;2023-03-03T22:26:55;42.17;;;25.47;;
9698;SDS011;10089;47.876;8.346;2023-03-03T22:29:20;47.60;;;26.20;;
9698;SDS011;10089;47.876;8.346;2023-03-03T22:31:47;45.97;;;26.43;;
9698;SDS011;10089;47.876;8.346;2023-03-03T22:34:14;53.07;;;28.27;;
9698;SDS011;10089;47.876;8.346;2023-03-03T22:36:40;45.70;;;27.07;;
9698;SDS011;10089;47.876;8.346;2023-03-03T22:39:06;41.13;;;25.30;;
9698;SDS011;10089;47.876;8.346;2023-03-03T22:41:31;46.43;;;25.10;;
9698;SDS011;10089;47.876;8.346;2023-03-03T22:43:57;48.93;;;26.57;;
9698;SDS011;10089;47.876;8.346;2023-03-03T22:46:23;43.03;;;26.23;;
9698;SDS011;10089;47.876;8.346;2023-03-03T22:48:49;48.93;;;26.40;;